sensor_id;sensor_type;location;lat;lon;timestamp;pressure;altitude;pressure_sealevel;temperature;humidity
60049;BME280;45925;45.544;6.756;2022-09-17T00:04:47;86586.63;;;11.13;60.08
60049;BME280;45925;45.544;6.756;2022-09-17T00:09:47;86621.47;;;9.95;59.72
60049;BME280;45925;45.544;6.756;2022-09-17T00:14:48;86614.16;;;10.72;59.15
60049;BME280;45925;45.544;6.756;2022-09-17T00:19:48;86588.09;;;10.98;61.97
60049;BME280;45925;45.544;6.756;2022-09-17T00:24:49;86594.63;;;10.95;62.58
60049;BME280;45925;45.544;6.756;2022-09-17T00:29:50;86600.59;;;10.59;65.61
60049;BME280;45925;45.544;6.756;2022-09-17T00:34:50;86599.53;;;10.23;69.20
60049;BME280;45925;45.544;6.756;2022-09-17T00:39:53;86599.44;;;9.94;72.72
60049;BME280;45925;45.544;6.756;2022-09-17T00:44:55;86595.50;;;10.34;69.47
60049;BME280;45925;45.544;6.756;2022-09-17T00:50:30;86602.31;;;10.05;70.76
60049;BME280;45925;45.544;6.756;2022-09-17T00:56:00;86598.56;;;10.03;70.56
60049;BME280;45925;45.544;6.756;2022-09-17T01:01:01;86615.78;;;9.77;70.22
60049;BME280;45925;45.544;6.756;2022-09-17T01:07:41;86616.44;;;9.41;65.39
60049;BME280;45925;45.544;6.756;2022-09-17T01:17:42;86629.03;;;9.79;60.85
60049;BME280;45925;45.544;6.756;2022-09-17T01:28:31;86653.47;;;9.19;57.66
60049;BME280;45925;45.544;6.756;2022-09-17T01:33:55;86650.78;;;9.15;56.08
60049;BME280;45925;45.544;6.756;2022-09-17T01:39:11;86658.19;;;8.45;59.30
60049;BME280;45925;45.544;6.756;2022-09-17T01:49:24;86656.09;;;8.89;55.52
60049;BME280;45925;45.544;6.756;2022-09-17T01:54:39;86660.47;;;8.38;61.38
60049;BME280;45925;45.544;6.756;2022-09-17T01:59:46;86655.44;;;8.50;62.83
60049;BME280;45925;45.544;6.756;2022-09-17T02:04:53;86658.63;;;7.61;61.45
60049;BME280;45925;45.544;6.756;2022-09-17T02:10:02;86664.59;;;8.21;56.01
60049;BME280;45925;45.544;6.756;2022-09-17T02:15:08;86655.16;;;7.66;55.56
60049;BME280;45925;45.544;6.756;2022-09-17T02:20:11;86666.44;;;8.12;60.09
60049;BME280;45925;45.544;6.756;2022-09-17T02:30:13;86688.63;;;7.43;66.82
60049;BME280;45925;45.544;6.756;2022-09-17T02:35:14;86682.56;;;8.51;64.46
60049;BME280;45925;45.544;6.756;2022-09-17T02:40:16;86683.50;;;8.08;64.85
60049;BME280;45925;45.544;6.756;2022-09-17T02:45:33;86677.31;;;8.39;64.87
60049;BME280;45925;45.544;6.756;2022-09-17T02:51:04;86678.53;;;8.03;62.85
60049;BME280;45925;45.544;6.756;2022-09-17T03:01:27;86692.50;;;7.67;68.78
60049;BME280;45925;45.544;6.756;2022-09-17T03:06:29;86689.22;;;7.40;67.53
60049;BME280;45925;45.544;6.756;2022-09-17T03:11:30;86690.75;;;7.23;57.41
60049;BME280;45925;45.544;6.756;2022-09-17T03:16:31;86689.50;;;6.60;58.96
60049;BME280;45925;45.544;6.756;2022-09-17T03:21:31;86696.56;;;7.59;58.61
60049;BME280;45925;45.544;6.756;2022-09-17T03:26:32;86698.88;;;6.99;55.99
60049;BME280;45925;45.544;6.756;2022-09-17T03:31:32;86682.91;;;7.46;52.33
60049;BME280;45925;45.544;6.756;2022-09-17T03:36:33;86695.72;;;6.76;51.79
60049;BME280;45925;45.544;6.756;2022-09-17T03:41:34;86696.28;;;6.56;51.21
60049;BME280;45925;45.544;6.756;2022-09-17T03:46:35;86686.38;;;6.71;50.46
60049;BME280;45925;45.544;6.756;2022-09-17T03:51:36;86680.66;;;7.44;50.12
60049;BME280;45925;45.544;6.756;2022-09-17T03:56:37;86671.69;;;7.77;51.38
60049;BME280;45925;45.544;6.756;2022-09-17T04:01:37;86675.38;;;7.58;56.64
60049;BME280;45925;45.544;6.756;2022-09-17T04:06:38;86673.47;;;7.03;48.98
60049;BME280;45925;45.544;6.756;2022-09-17T04:11:39;86667.13;;;7.18;56.45
60049;BME280;45925;45.544;6.756;2022-09-17T04:16:39;86690.41;;;6.46;59.04
60049;BME280;45925;45.544;6.756;2022-09-17T04:21:40;86693.75;;;7.43;57.38
60049;BME280;45925;45.544;6.756;2022-09-17T04:26:40;86701.22;;;6.34;63.24
60049;BME280;45925;45.544;6.756;2022-09-17T04:31:41;86681.13;;;7.38;60.90
60049;BME280;45925;45.544;6.756;2022-09-17T04:36:42;86689.38;;;7.26;60.89
60049;BME280;45925;45.544;6.756;2022-09-17T04:41:42;86698.44;;;6.97;55.61
60049;BME280;45925;45.544;6.756;2022-09-17T04:46:43;86693.41;;;7.53;54.40
60049;BME280;45925;45.544;6.756;2022-09-17T04:51:43;86737.81;;;6.87;62.43
60049;BME280;45925;45.544;6.756;2022-09-17T04:56:44;86750.16;;;7.38;62.88
60049;BME280;45925;45.544;6.756;2022-09-17T05:01:44;86762.16;;;6.76;60.89
60049;BME280;45925;45.544;6.756;2022-09-17T05:06:45;86774.53;;;7.09;63.03
60049;BME280;45925;45.544;6.756;2022-09-17T05:11:46;86764.75;;;7.11;62.50
60049;BME280;45925;45.544;6.756;2022-09-17T05:16:46;86736.03;;;7.14;63.22
60049;BME280;45925;45.544;6.756;2022-09-17T05:21:47;86734.47;;;6.69;67.34
60049;BME280;45925;45.544;6.756;2022-09-17T05:26:47;86732.56;;;6.84;63.35
60049;BME280;45925;45.544;6.756;2022-09-17T05:31:48;86741.03;;;6.04;65.35
60049;BME280;45925;45.544;6.756;2022-09-17T05:36:48;86748.22;;;5.25;69.78
60049;BME280;45925;45.544;6.756;2022-09-17T05:41:52;86759.59;;;6.27;65.70
60049;BME280;45925;45.544;6.756;2022-09-17T05:46:53;86768.44;;;6.70;68.69
60049;BME280;45925;45.544;6.756;2022-09-17T05:51:53;86775.97;;;6.75;66.38
60049;BME280;45925;45.544;6.756;2022-09-17T05:56:54;86781.91;;;6.44;67.45
60049;BME280;45925;45.544;6.756;2022-09-17T06:01:55;86780.00;;;5.96;71.55
60049;BME280;45925;45.544;6.756;2022-09-17T06:06:55;86790.00;;;6.46;70.37
60049;BME280;45925;45.544;6.756;2022-09-17T06:11:56;86785.13;;;6.27;70.36
60049;BME280;45925;45.544;6.756;2022-09-17T06:16:56;86794.00;;;6.30;70.37
60049;BME280;45925;45.544;6.756;2022-09-17T06:21:57;86796.88;;;6.37;68.84
60049;BME280;45925;45.544;6.756;2022-09-17T06:26:58;86804.53;;;5.83;71.16
60049;BME280;45925;45.544;6.756;2022-09-17T06:31:58;86808.44;;;6.34;69.06
60049;BME280;45925;45.544;6.756;2022-09-17T06:37:00;86815.25;;;6.48;68.85
60049;BME280;45925;45.544;6.756;2022-09-17T06:42:00;86821.09;;;6.48;66.85
60049;BME280;45925;45.544;6.756;2022-09-17T06:47:01;86815.09;;;6.13;69.53
60049;BME280;45925;45.544;6.756;2022-09-17T06:52:02;86815.81;;;6.36;67.95
60049;BME280;45925;45.544;6.756;2022-09-17T06:57:04;86822.03;;;6.52;68.26
60049;BME280;45925;45.544;6.756;2022-09-17T07:02:05;86821.63;;;6.28;69.11
60049;BME280;45925;45.544;6.756;2022-09-17T07:07:06;86819.34;;;6.26;69.18
60049;BME280;45925;45.544;6.756;2022-09-17T07:12:07;86817.28;;;6.28;69.27
60049;BME280;45925;45.544;6.756;2022-09-17T07:17:08;86824.75;;;6.25;68.25
60049;BME280;45925;45.544;6.756;2022-09-17T07:22:09;86830.94;;;6.24;68.67
60049;BME280;45925;45.544;6.756;2022-09-17T07:27:09;86812.06;;;6.42;69.18
60049;BME280;45925;45.544;6.756;2022-09-17T07:32:10;86838.44;;;5.38;68.81
60049;BME280;45925;45.544;6.756;2022-09-17T07:37:10;86831.25;;;6.31;68.16
60049;BME280;45925;45.544;6.756;2022-09-17T07:42:11;86834.44;;;6.37;67.36
60049;BME280;45925;45.544;6.756;2022-09-17T07:47:12;86839.69;;;6.40;64.70
60049;BME280;45925;45.544;6.756;2022-09-17T07:52:12;86835.84;;;6.51;64.02
60049;BME280;45925;45.544;6.756;2022-09-17T07:57:13;86840.28;;;6.77;62.92
60049;BME280;45925;45.544;6.756;2022-09-17T08:02:14;86839.03;;;6.57;61.27
60049;BME280;45925;45.544;6.756;2022-09-17T08:07:14;86848.84;;;5.28;60.34
60049;BME280;45925;45.544;6.756;2022-09-17T08:12:15;86848.63;;;5.75;62.91
60049;BME280;45925;45.544;6.756;2022-09-17T08:17:17;86853.94;;;6.32;66.27
60049;BME280;45925;45.544;6.756;2022-09-17T08:22:18;86857.41;;;6.68;64.06
60049;BME280;45925;45.544;6.756;2022-09-17T08:27:18;86872.03;;;6.45;57.15
60049;BME280;45925;45.544;6.756;2022-09-17T08:32:19;86860.22;;;6.58;56.84
60049;BME280;45925;45.544;6.756;2022-09-17T08:37:19;86863.56;;;6.67;56.49
60049;BME280;45925;45.544;6.756;2022-09-17T08:42:26;86876.19;;;7.12;55.89
60049;BME280;45925;45.544;6.756;2022-09-17T08:47:39;86881.97;;;6.86;57.32
60049;BME280;45925;45.544;6.756;2022-09-17T09:08:09;86890.28;;;8.02;46.25
60049;BME280;45925;45.544;6.756;2022-09-17T09:13:14;86886.34;;;7.96;46.52
60049;BME280;45925;45.544;6.756;2022-09-17T09:18:19;86884.22;;;8.24;47.46
60049;BME280;45925;45.544;6.756;2022-09-17T09:33:45;86879.38;;;8.58;45.68
60049;BME280;45925;45.544;6.756;2022-09-17T09:38:52;86871.50;;;8.72;45.39
60049;BME280;45925;45.544;6.756;2022-09-17T09:44:03;86873.63;;;8.69;45.15
60049;BME280;45925;45.544;6.756;2022-09-17T09:59:49;86878.84;;;8.91;44.98
60049;BME280;45925;45.544;6.756;2022-09-17T10:04:50;86878.88;;;8.82;43.17
60049;BME280;45925;45.544;6.756;2022-09-17T10:10:07;86878.25;;;9.23;43.33
60049;BME280;45925;45.544;6.756;2022-09-17T10:15:28;86882.66;;;9.14;44.49
60049;BME280;45925;45.544;6.756;2022-09-17T10:20:29;86868.53;;;9.38;42.06
60049;BME280;45925;45.544;6.756;2022-09-17T10:25:31;86874.34;;;9.47;41.57
60049;BME280;45925;45.544;6.756;2022-09-17T10:30:33;86871.50;;;9.70;41.82
60049;BME280;45925;45.544;6.756;2022-09-17T10:35:34;86866.75;;;9.81;41.11
60049;BME280;45925;45.544;6.756;2022-09-17T10:40:35;86868.88;;;10.00;41.65
60049;BME280;45925;45.544;6.756;2022-09-17T10:45:39;86856.25;;;9.94;39.58
60049;BME280;45925;45.544;6.756;2022-09-17T10:50:51;86850.81;;;10.08;40.27
60049;BME280;45925;45.544;6.756;2022-09-17T10:56:22;86854.34;;;9.83;42.89
60049;BME280;45925;45.544;6.756;2022-09-17T11:34:28;86857.50;;;11.75;35.24
60049;BME280;45925;45.544;6.756;2022-09-17T11:39:53;86862.53;;;13.41;34.22
60049;BME280;45925;45.544;6.756;2022-09-17T11:45:02;86860.63;;;13.89;33.17
60049;BME280;45925;45.544;6.756;2022-09-17T11:50:23;86862.53;;;15.79;30.81
60049;BME280;45925;45.544;6.756;2022-09-17T11:55:31;86849.97;;;14.10;33.33
60049;BME280;45925;45.544;6.756;2022-09-17T12:00:41;86844.38;;;16.66;28.40
60049;BME280;45925;45.544;6.756;2022-09-17T12:05:50;86875.31;;;16.48;26.74
60049;BME280;45925;45.544;6.756;2022-09-17T12:16:30;86838.13;;;18.61;26.70
60049;BME280;45925;45.544;6.756;2022-09-17T12:21:42;86819.94;;;18.75;27.01
60049;BME280;45925;45.544;6.756;2022-09-17T12:37:58;86833.56;;;20.00;24.62
60049;BME280;45925;45.544;6.756;2022-09-17T12:44:10;86842.50;;;20.06;23.36
60049;BME280;45925;45.544;6.756;2022-09-17T12:48:58;86836.34;;;20.95;23.86
60049;BME280;45925;45.544;6.756;2022-09-17T12:59:16;86868.16;;;20.69;22.81
60049;BME280;45925;45.544;6.756;2022-09-17T13:20:16;86843.22;;;22.85;20.80
60049;BME280;45925;45.544;6.756;2022-09-17T13:25:19;86836.13;;;22.43;20.53
60049;BME280;45925;45.544;6.756;2022-09-17T13:30:20;86831.34;;;22.38;21.15
60049;BME280;45925;45.544;6.756;2022-09-17T13:40:31;86850.53;;;23.62;21.64
60049;BME280;45925;45.544;6.756;2022-09-17T13:45:33;86851.38;;;24.10;20.10
60049;BME280;45925;45.544;6.756;2022-09-17T13:50:40;86862.72;;;21.93;21.09
60049;BME280;45925;45.544;6.756;2022-09-17T13:55:51;86867.81;;;22.11;20.96
60049;BME280;45925;45.544;6.756;2022-09-17T14:37:41;86860.06;;;23.80;19.71
60049;BME280;45925;45.544;6.756;2022-09-17T14:42:43;86865.16;;;25.09;19.02
60049;BME280;45925;45.544;6.756;2022-09-17T14:47:45;86871.28;;;23.53;20.51
60049;BME280;45925;45.544;6.756;2022-09-17T14:52:50;86864.69;;;25.34;17.57
60049;BME280;45925;45.544;6.756;2022-09-17T14:57:53;86879.97;;;24.55;18.75
60049;BME280;45925;45.544;6.756;2022-09-17T15:02:55;86873.53;;;25.44;17.40
60049;BME280;45925;45.544;6.756;2022-09-17T15:08:14;86884.00;;;23.24;18.94
60049;BME280;45925;45.544;6.756;2022-09-17T15:13:22;86881.50;;;21.77;21.01
60049;BME280;45925;45.544;6.756;2022-09-17T15:18:54;86884.19;;;20.56;22.01
60049;BME280;45925;45.544;6.756;2022-09-17T15:24:06;86897.75;;;15.14;27.73
60049;BME280;45925;45.544;6.756;2022-09-17T15:29:11;86896.38;;;17.04;26.73
60049;BME280;45925;45.544;6.756;2022-09-17T15:34:13;86894.50;;;17.80;26.25
60049;BME280;45925;45.544;6.756;2022-09-17T15:39:39;86898.13;;;16.62;27.12
60049;BME280;45925;45.544;6.756;2022-09-17T15:44:40;86894.47;;;15.83;26.29
60049;BME280;45925;45.544;6.756;2022-09-17T15:49:41;86903.75;;;15.18;32.37
60049;BME280;45925;45.544;6.756;2022-09-17T15:54:41;86910.19;;;15.94;29.36
60049;BME280;45925;45.544;6.756;2022-09-17T15:59:42;86907.63;;;16.24;29.18
60049;BME280;45925;45.544;6.756;2022-09-17T16:04:43;86905.78;;;15.98;29.43
60049;BME280;45925;45.544;6.756;2022-09-17T16:09:46;86913.75;;;15.86;29.68
60049;BME280;45925;45.544;6.756;2022-09-17T16:14:54;86918.38;;;15.07;31.06
60049;BME280;45925;45.544;6.756;2022-09-17T16:19:55;86926.13;;;15.07;30.79
60049;BME280;45925;45.544;6.756;2022-09-17T16:24:56;86924.03;;;13.23;33.96
60049;BME280;45925;45.544;6.756;2022-09-17T16:30:02;86931.66;;;14.31;33.22
60049;BME280;45925;45.544;6.756;2022-09-17T16:35:03;86935.47;;;14.37;32.49
60049;BME280;45925;45.544;6.756;2022-09-17T16:40:06;86936.03;;;14.82;32.40
60049;BME280;45925;45.544;6.756;2022-09-17T16:45:08;86932.00;;;14.65;32.33
60049;BME280;45925;45.544;6.756;2022-09-17T16:50:12;86951.59;;;12.62;35.95
60049;BME280;45925;45.544;6.756;2022-09-17T16:55:14;86936.69;;;14.08;34.81
60049;BME280;45925;45.544;6.756;2022-09-17T17:00:17;86947.13;;;14.11;34.68
60049;BME280;45925;45.544;6.756;2022-09-17T17:05:19;86952.22;;;14.08;34.98
60049;BME280;45925;45.544;6.756;2022-09-17T17:10:20;86955.56;;;13.76;35.06
60049;BME280;45925;45.544;6.756;2022-09-17T17:15:21;86961.03;;;12.99;35.17
60049;BME280;45925;45.544;6.756;2022-09-17T17:20:21;86965.72;;;13.37;34.43
60049;BME280;45925;45.544;6.756;2022-09-17T17:25:22;86971.38;;;12.71;34.59
60049;BME280;45925;45.544;6.756;2022-09-17T17:30:23;86979.16;;;11.35;36.83
60049;BME280;45925;45.544;6.756;2022-09-17T17:35:24;86966.53;;;11.79;37.07
60049;BME280;45925;45.544;6.756;2022-09-17T17:40:25;86970.09;;;11.99;37.54
60049;BME280;45925;45.544;6.756;2022-09-17T17:45:25;86976.75;;;12.25;37.62
60049;BME280;45925;45.544;6.756;2022-09-17T17:50:26;86991.47;;;12.00;38.53
60049;BME280;45925;45.544;6.756;2022-09-17T17:55:26;87001.34;;;11.98;39.38
60049;BME280;45925;45.544;6.756;2022-09-17T18:00:27;87007.66;;;12.12;37.94
60049;BME280;45925;45.544;6.756;2022-09-17T18:05:28;87008.94;;;11.69;38.94
60049;BME280;45925;45.544;6.756;2022-09-17T18:10:28;87009.28;;;11.34;39.82
60049;BME280;45925;45.544;6.756;2022-09-17T18:15:29;87025.31;;;10.85;40.09
60049;BME280;45925;45.544;6.756;2022-09-17T18:20:29;87036.72;;;9.00;42.16
60049;BME280;45925;45.544;6.756;2022-09-17T18:25:30;87034.97;;;10.88;41.74
60049;BME280;45925;45.544;6.756;2022-09-17T18:30:30;87039.13;;;10.81;41.53
60049;BME280;45925;45.544;6.756;2022-09-17T18:35:35;87051.53;;;8.86;46.31
60049;BME280;45925;45.544;6.756;2022-09-17T18:40:35;87057.41;;;10.37;43.54
60049;BME280;45925;45.544;6.756;2022-09-17T18:45:36;87071.56;;;8.93;43.30
60049;BME280;45925;45.544;6.756;2022-09-17T18:50:36;87066.00;;;9.17;42.38
60049;BME280;45925;45.544;6.756;2022-09-17T18:55:37;87074.34;;;10.38;42.62
60049;BME280;45925;45.544;6.756;2022-09-17T19:00:39;87081.50;;;10.24;44.84
60049;BME280;45925;45.544;6.756;2022-09-17T19:05:39;87076.53;;;10.19;45.05
60049;BME280;45925;45.544;6.756;2022-09-17T19:10:40;87090.91;;;10.11;45.25
60049;BME280;45925;45.544;6.756;2022-09-17T19:15:40;87087.28;;;9.73;46.32
60049;BME280;45925;45.544;6.756;2022-09-17T19:20:41;87095.88;;;9.77;45.39
60049;BME280;45925;45.544;6.756;2022-09-17T19:25:42;87097.88;;;9.63;46.31
60049;BME280;45925;45.544;6.756;2022-09-17T19:30:42;87102.41;;;9.66;47.66
60049;BME280;45925;45.544;6.756;2022-09-17T19:35:43;87106.69;;;9.45;48.13
60049;BME280;45925;45.544;6.756;2022-09-17T19:40:43;87101.97;;;9.47;48.10
60049;BME280;45925;45.544;6.756;2022-09-17T19:46:01;87116.06;;;8.88;48.71
60049;BME280;45925;45.544;6.756;2022-09-17T19:51:03;87115.78;;;9.16;48.90
60049;BME280;45925;45.544;6.756;2022-09-17T19:56:05;87113.03;;;9.21;48.84
60049;BME280;45925;45.544;6.756;2022-09-17T20:01:06;87113.97;;;9.07;49.48
60049;BME280;45925;45.544;6.756;2022-09-17T20:06:10;87119.53;;;9.10;48.94
60049;BME280;45925;45.544;6.756;2022-09-17T20:11:11;87116.06;;;8.88;50.16
60049;BME280;45925;45.544;6.756;2022-09-17T20:16:18;87120.88;;;8.63;48.64
60049;BME280;45925;45.544;6.756;2022-09-17T20:21:22;87127.28;;;7.86;50.90
60049;BME280;45925;45.544;6.756;2022-09-17T20:26:24;87129.44;;;8.50;48.97
60049;BME280;45925;45.544;6.756;2022-09-17T20:31:26;87132.59;;;8.47;51.01
60049;BME280;45925;45.544;6.756;2022-09-17T20:36:29;87145.53;;;8.42;50.96
60049;BME280;45925;45.544;6.756;2022-09-17T20:41:31;87143.78;;;8.51;49.96
60049;BME280;45925;45.544;6.756;2022-09-17T20:46:31;87151.75;;;8.49;49.37
60049;BME280;45925;45.544;6.756;2022-09-17T20:51:32;87157.56;;;8.32;50.66
60049;BME280;45925;45.544;6.756;2022-09-17T20:56:34;87161.25;;;8.09;51.58
60049;BME280;45925;45.544;6.756;2022-09-17T21:01:35;87165.22;;;8.24;51.13
60049;BME280;45925;45.544;6.756;2022-09-17T21:06:39;87171.47;;;8.09;51.94
60049;BME280;45925;45.544;6.756;2022-09-17T21:11:41;87178.69;;;7.98;51.36
60049;BME280;45925;45.544;6.756;2022-09-17T21:16:42;87184.47;;;7.81;52.34
60049;BME280;45925;45.544;6.756;2022-09-17T21:21:43;87180.38;;;7.71;52.87
60049;BME280;45925;45.544;6.756;2022-09-17T21:26:44;87188.06;;;7.80;52.96
60049;BME280;45925;45.544;6.756;2022-09-17T21:31:45;87196.44;;;7.63;53.20
60049;BME280;45925;45.544;6.756;2022-09-17T21:36:45;87189.41;;;7.23;54.42
60049;BME280;45925;45.544;6.756;2022-09-17T21:41:47;87196.13;;;7.19;54.08
60049;BME280;45925;45.544;6.756;2022-09-17T21:46:47;87188.00;;;7.17;53.55
60049;BME280;45925;45.544;6.756;2022-09-17T21:51:48;87197.28;;;7.36;53.72
60049;BME280;45925;45.544;6.756;2022-09-17T21:56:49;87202.31;;;7.41;52.52
60049;BME280;45925;45.544;6.756;2022-09-17T22:01:49;87192.94;;;7.36;53.60
60049;BME280;45925;45.544;6.756;2022-09-17T22:06:51;87199.00;;;7.04;53.78
60049;BME280;45925;45.544;6.756;2022-09-17T22:11:52;87208.44;;;7.17;53.59
60049;BME280;45925;45.544;6.756;2022-09-17T22:16:54;87208.78;;;7.24;53.77
60049;BME280;45925;45.544;6.756;2022-09-17T22:21:56;87198.06;;;7.14;54.15
60049;BME280;45925;45.544;6.756;2022-09-17T22:26:56;87199.69;;;6.96;54.12
60049;BME280;45925;45.544;6.756;2022-09-17T22:31:57;87206.66;;;6.81;54.47
60049;BME280;45925;45.544;6.756;2022-09-17T22:36:57;87198.28;;;6.89;54.62
60049;BME280;45925;45.544;6.756;2022-09-17T22:41:59;87197.25;;;6.91;54.34
60049;BME280;45925;45.544;6.756;2022-09-17T22:46:59;87196.94;;;6.56;56.11
60049;BME280;45925;45.544;6.756;2022-09-17T22:52:00;87201.31;;;6.55;55.54
60049;BME280;45925;45.544;6.756;2022-09-17T22:57:00;87194.03;;;6.85;54.17
60049;BME280;45925;45.544;6.756;2022-09-17T23:02:01;87200.16;;;6.33;55.72
60049;BME280;45925;45.544;6.756;2022-09-17T23:07:01;87195.91;;;6.43;56.67
60049;BME280;45925;45.544;6.756;2022-09-17T23:12:03;87198.53;;;6.51;56.15
60049;BME280;45925;45.544;6.756;2022-09-17T23:17:04;87201.94;;;6.47;56.34
60049;BME280;45925;45.544;6.756;2022-09-17T23:22:04;87200.25;;;6.42;56.94
60049;BME280;45925;45.544;6.756;2022-09-17T23:27:05;87200.38;;;6.09;57.36
60049;BME280;45925;45.544;6.756;2022-09-17T23:32:05;87195.34;;;6.32;56.49
60049;BME280;45925;45.544;6.756;2022-09-17T23:37:06;87206.34;;;6.19;57.09
60049;BME280;45925;45.544;6.756;2022-09-17T23:42:06;87197.25;;;5.98;57.96
60049;BME280;45925;45.544;6.756;2022-09-17T23:47:07;87201.72;;;5.88;58.28
60049;BME280;45925;45.544;6.756;2022-09-17T23:52:07;87202.63;;;5.64;59.84
60049;BME280;45925;45.544;6.756;2022-09-17T23:57:08;87206.66;;;5.84;58.14
